Time;durP1;ratioP1;P1;durP2;ratioP2;P2;SDS_P1;SDS_P2;PMS_P1;PMS_P2;Temp;Humidity;BMP_temperature;BMP_pressure;BME280_temperature;BME280_humidity;BME280_pressure;Samples;Min_cycle;Max_cycle;Signal;HPM_P1;HPM_P2
2021/03/01 00:24:30;;;;;;;13.73;11.00;;;;;;;;;;6304634;22;20019;-77
2021/03/01 00:26:58;;;;;;;16.83;12.02;;;;;;;;;;6302266;22;20007;-86
2021/03/01 00:29:25;;;;;;;17.67;11.73;;;;;;;;;;6300835;22;20458;-86
2021/03/01 00:31:52;;;;;;;16.38;11.10;;;;;;;;;;6271715;22;20030;-83
2021/03/01 00:34:19;;;;;;;15.80;11.95;;;;;;;;;;6274088;22;20015;-86
2021/03/01 00:36:46;;;;;;;13.63;11.38;;;;;;;;;;6273095;22;19996;-87
2021/03/01 00:58:02;;;;;;;12.15;10.23;;;;;;;;;;6304734;22;20038;-90
2021/03/01 01:00:29;;;;;;;12.68;11.38;;;;;;;;;;6295368;22;20012;-90
2021/03/01 01:02:56;;;;;;;14.30;10.50;;;;;;;;;;6272476;22;20339;-78
2021/03/01 01:05:23;;;;;;;13.02;10.10;;;;;;;;;;6274185;22;19999;-87
2021/03/01 01:07:50;;;;;;;12.65;9.73;;;;;;;;;;6273460;22;20075;-88
2021/03/01 01:10:18;;;;;;;14.45;10.25;;;;;;;;;;6272403;22;20079;-88
2021/03/01 01:12:45;;;;;;;13.82;10.27;;;;;;;;;;6273379;22;20023;-88
2021/03/01 01:15:12;;;;;;;10.98;9.07;;;;;;;;;;6274702;22;20078;-88
2021/03/01 01:17:39;;;;;;;15.48;9.57;;;;;;;;;;6276518;22;20495;-87
2021/03/01 01:20:10;;;;;;;11.85;9.68;;;;;;;;;;6275538;22;20445;-86
2021/03/01 01:22:37;;;;;;;13.73;10.18;;;;;;;;;;6276519;22;20060;-89
2021/03/01 01:25:05;;;;;;;13.68;9.38;;;;;;;;;;6273949;22;20011;-84
2021/03/01 01:27:32;;;;;;;13.50;10.68;;;;;;;;;;6276533;22;20380;-85
2021/03/01 01:30:00;;;;;;;13.95;9.25;;;;;;;;;;6275104;22;20008;-89
2021/03/01 01:32:27;;;;;;;21.65;10.48;;;;;;;;;;6274493;22;20335;-88
2021/03/01 01:34:54;;;;;;;14.90;9.13;;;;;;;;;;6273004;22;20644;-86
2021/03/01 01:37:21;;;;;;;12.85;7.88;;;;;;;;;;6276708;22;20022;-87
2021/03/01 01:39:48;;;;;;;9.55;6.57;;;;;;;;;;6295370;22;20034;-77
2021/03/01 01:42:16;;;;;;;12.98;7.03;;;;;;;;;;6303487;22;20421;-85
2021/03/01 01:44:43;;;;;;;11.68;6.38;;;;;;;;;;6306013;22;20027;-84
2021/03/01 01:47:10;;;;;;;11.85;6.05;;;;;;;;;;6304219;22;20065;-81
2021/03/01 01:49:37;;;;;;;12.63;5.90;;;;;;;;;;6306237;22;19999;-85
2021/03/01 01:52:04;;;;;;;17.08;5.88;;;;;;;;;;6305023;22;19999;-86
2021/03/01 01:54:31;;;;;;;13.13;5.55;;;;;;;;;;6306516;22;20019;-85
2021/03/01 01:56:58;;;;;;;10.48;5.50;;;;;;;;;;6304674;22;20454;-84
2021/03/01 01:59:26;;;;;;;11.65;5.60;;;;;;;;;;6304229;22;20007;-84
2021/03/01 02:01:53;;;;;;;12.05;5.88;;;;;;;;;;6304511;22;20065;-80
2021/03/01 02:04:27;;;;;;;9.52;5.97;;;;;;;;;;6305914;22;20005;-79
2021/03/01 02:07:13;;;;;;;9.55;5.95;;;;;;;;;;6301446;22;20464;-78
2021/03/01 02:09:55;;;;;;;11.35;5.93;;;;;;;;;;6305866;22;20007;-82
2021/03/01 02:12:27;;;;;;;15.05;6.00;;;;;;;;;;6304752;22;20026;-84
2021/03/01 02:15:09;;;;;;;15.80;5.80;;;;;;;;;;6304941;22;20045;-81
2021/03/01 02:17:37;;;;;;;8.45;5.28;;;;;;;;;;6304369;22;20003;-83
2021/03/01 02:20:08;;;;;;;11.95;6.13;;;;;;;;;;6303394;22;20436;-81
2021/03/01 02:22:35;;;;;;;9.93;5.20;;;;;;;;;;6303132;22;19995;-82
2021/03/01 02:25:10;;;;;;;11.13;5.82;;;;;;;;;;6301501;22;20007;-82
2021/03/01 02:27:44;;;;;;;9.60;5.32;;;;;;;;;;6304493;22;20019;-82
2021/03/01 02:30:28;;;;;;;12.18;4.90;;;;;;;;;;6303488;22;20355;-84
2021/03/01 02:32:58;;;;;;;8.55;5.43;;;;;;;;;;6304411;22;20008;-83
2021/03/01 02:35:26;;;;;;;8.90;6.57;;;;;;;;;;6303241;22;20014;-83
2021/03/01 02:37:53;;;;;;;12.77;6.18;;;;;;;;;;6302901;22;20422;-80
2021/03/01 02:40:21;;;;;;;11.68;6.43;;;;;;;;;;6304164;22;20011;-82
2021/03/01 02:42:49;;;;;;;10.30;6.30;;;;;;;;;;6306237;22;20009;-83
2021/03/01 03:33:44;;;;;;;14.20;5.25;;;30.30;99.90;;;;;;6170441;22;2688975;-68
2021/03/01 03:36:13;;;;;;;10.05;4.90;;;30.10;99.90;;;;;;6314858;22;20010;-68
2021/03/01 03:38:46;;;;;;;9.05;4.80;;;30.30;99.90;;;;;;6314976;22;19999;-69
2021/03/01 03:41:15;;;;;;;8.90;4.43;;;30.20;99.90;;;;;;6315467;22;20033;-68
2021/03/01 03:43:44;;;;;;;9.32;4.50;;;30.10;99.90;;;;;;6314717;22;20061;-68
2021/03/01 03:46:14;;;;;;;8.40;4.72;;;30.40;99.90;;;;;;6316717;22;20006;-68
2021/03/01 03:48:43;;;;;;;9.55;4.70;;;30.10;99.90;;;;;;6316500;22;20795;-68
2021/03/01 03:51:12;;;;;;;6.80;4.13;;;30.10;99.90;;;;;;6317668;22;19999;-67
2021/03/01 03:53:54;;;;;;;7.75;4.07;;;29.60;99.90;;;;;;6313744;22;20348;-68
2021/03/01 03:56:28;;;;;;;8.68;4.55;;;29.90;99.90;;;;;;6312849;22;20022;-68
2021/03/01 03:59:02;;;;;;;9.63;4.38;;;29.90;99.90;;;;;;6315657;22;20006;-68
2021/03/01 04:01:33;;;;;;;7.38;3.55;;;30.00;99.90;;;;;;6314805;22;20025;-68
2021/03/01 04:04:05;;;;;;;9.18;3.85;;;30.10;99.90;;;;;;6322091;22;20018;-67
2021/03/01 04:06:36;;;;;;;10.30;4.15;;;30.00;99.90;;;;;;6320207;22;20433;-67
2021/03/01 04:09:09;;;;;;;10.05;4.22;;;29.80;99.90;;;;;;6326043;22;20034;-67
2021/03/01 04:11:39;;;;;;;7.20;3.83;;;30.00;99.90;;;;;;6322272;22;20023;-67
2021/03/01 04:14:08;;;;;;;9.90;4.15;;;30.20;99.90;;;;;;6323237;22;20006;-67
2021/03/01 04:16:37;;;;;;;10.52;4.28;;;30.20;99.90;;;;;;6321855;22;19995;-67
2021/03/01 04:19:07;;;;;;;9.70;3.90;;;29.90;99.90;;;;;;6322893;22;19995;-68
2021/03/01 04:21:37;;;;;;;9.77;4.28;;;29.60;99.90;;;;;;6318768;22;20019;-67
2021/03/01 04:24:06;;;;;;;15.40;5.07;;;29.40;99.90;;;;;;6291573;22;20006;-67
2021/03/01 04:26:34;;;;;;;10.27;3.78;;;29.30;99.90;;;;;;6296045;22;20448;-67
2021/03/01 04:29:02;;;;;;;7.60;4.28;;;29.40;99.90;;;;;;6289699;22;20010;-68
2021/03/01 04:31:31;;;;;;;10.00;4.05;;;29.50;99.90;;;;;;6294916;22;20082;-67
2021/03/01 04:34:00;;;;;;;9.38;4.68;;;29.50;99.90;;;;;;6282690;22;20007;-68
2021/03/01 04:36:28;;;;;;;9.52;4.57;;;29.40;99.90;;;;;;6279891;22;20004;-67
2021/03/01 04:38:56;;;;;;;8.13;4.03;;;29.40;99.90;;;;;;6282224;22;20074;-68
2021/03/01 04:41:24;;;;;;;10.57;4.50;;;29.40;99.90;;;;;;6285355;22;20003;-67
2021/03/01 04:43:52;;;;;;;8.20;4.18;;;29.10;99.90;;;;;;6285436;22;20008;-67
2021/03/01 04:46:20;;;;;;;8.45;4.05;;;29.20;99.90;;;;;;6284643;22;20000;-67
2021/03/01 04:48:51;;;;;;;10.68;4.38;;;29.10;99.90;;;;;;6285801;22;20307;-68
2021/03/01 04:51:18;;;;;;;14.20;5.05;;;28.90;99.90;;;;;;6279076;22;20372;-67
2021/03/01 04:53:46;;;;;;;8.52;4.68;;;28.90;99.90;;;;;;6282707;22;20000;-67
2021/03/01 04:56:14;;;;;;;11.95;4.68;;;29.00;99.90;;;;;;6283025;22;20011;-67
2021/03/01 04:58:42;;;;;;;12.40;5.00;;;29.00;99.90;;;;;;6281459;22;20015;-67
2021/03/01 05:01:11;;;;;;;9.45;5.13;;;28.90;99.90;;;;;;6281477;22;20003;-67
2021/03/01 05:03:39;;;;;;;12.32;5.25;;;29.10;99.90;;;;;;6282584;22;20423;-68
2021/03/01 05:06:06;;;;;;;10.00;5.50;;;29.00;99.90;;;;;;6278639;22;19996;-68
2021/03/01 05:08:36;;;;;;;10.07;4.55;;;29.00;99.90;;;;;;6280209;22;19995;-68
2021/03/01 05:11:06;;;;;;;7.40;4.43;;;29.00;99.90;;;;;;6279138;22;20030;-68
2021/03/01 05:13:34;;;;;;;10.63;4.43;;;28.90;99.90;;;;;;6282914;22;20351;-67
2021/03/01 05:16:02;;;;;;;6.22;3.83;;;28.60;99.90;;;;;;6286096;22;20073;-66
2021/03/01 05:18:30;;;;;;;17.05;4.63;;;28.40;99.90;;;;;;6282432;22;19996;-67
2021/03/01 05:20:57;;;;;;;10.80;4.85;;;28.40;99.90;;;;;;6283478;22;20065;-67
2021/03/01 05:23:25;;;;;;;16.70;4.97;;;28.40;99.90;;;;;;6285065;22;20337;-67
2021/03/01 05:25:52;;;;;;;12.27;4.80;;;28.30;99.90;;;;;;6280778;22;19995;-67
2021/03/01 05:28:20;;;;;;;12.82;4.97;;;28.40;99.90;;;;;;6280544;22;20372;-68
2021/03/01 05:30:47;;;;;;;11.55;4.88;;;28.40;99.90;;;;;;6282384;22;20007;-67
2021/03/01 05:33:14;;;;;;;14.95;4.93;;;28.40;99.90;;;;;;6283712;22;20015;-67
2021/03/01 05:35:42;;;;;;;11.13;4.50;;;28.40;99.90;;;;;;6281469;22;20008;-67
2021/03/01 05:38:10;;;;;;;11.30;4.68;;;28.40;99.90;;;;;;6284747;22;20000;-67
2021/03/01 05:40:37;;;;;;;13.20;5.07;;;28.40;99.90;;;;;;6285062;22;20417;-67
2021/03/01 05:43:06;;;;;;;12.30;4.85;;;28.40;99.90;;;;;;6284250;22;19995;-67
2021/03/01 05:45:33;;;;;;;13.32;5.07;;;28.40;99.90;;;;;;6282607;22;20014;-67
2021/03/01 05:48:01;;;;;;;11.50;4.75;;;28.40;99.90;;;;;;6283804;22;19999;-67
2021/03/01 05:50:28;;;;;;;12.30;5.00;;;28.30;99.90;;;;;;6281119;22;20000;-67
2021/03/01 05:53:00;;;;;;;7.50;4.00;;;28.30;99.90;;;;;;6279012;22;20054;-67
2021/03/01 05:55:28;;;;;;;10.70;4.47;;;28.40;99.90;;;;;;6280482;22;20007;-67
2021/03/01 05:57:58;;;;;;;12.10;4.90;;;28.40;99.90;;;;;;6284549;22;20060;-67
2021/03/01 06:00:26;;;;;;;13.98;5.32;;;28.20;99.90;;;;;;6286577;22;19996;-67
2021/03/01 06:02:53;;;;;;;15.07;5.07;;;28.10;99.90;;;;;;6278906;22;20054;-67
2021/03/01 06:05:21;;;;;;;11.50;4.32;;;28.00;99.90;;;;;;6282721;22;20086;-68
2021/03/01 06:07:49;;;;;;;12.88;4.63;;;28.00;99.90;;;;;;6280998;22;20425;-67
2021/03/01 06:10:17;;;;;;;15.00;5.18;;;28.10;99.90;;;;;;6282344;22;19999;-67
2021/03/01 06:12:44;;;;;;;10.68;4.53;;;28.10;99.90;;;;;;6281429;22;20000;-67
2021/03/01 06:15:12;;;;;;;14.02;5.63;;;28.10;99.90;;;;;;6276843;22;20008;-68
2021/03/01 06:17:39;;;;;;;9.27;4.35;;;28.10;99.90;;;;;;6279826;22;20000;-67
2021/03/01 06:20:09;;;;;;;15.10;4.40;;;28.10;99.90;;;;;;6287163;22;20004;-67
2021/03/01 06:22:40;;;;;;;11.38;5.00;;;28.20;99.90;;;;;;6279544;22;20008;-68
2021/03/01 06:25:09;;;;;;;14.13;4.43;;;28.10;99.90;;;;;;6277620;22;20003;-68
2021/03/01 06:28:00;;;;;;;11.23;4.90;;;28.10;99.90;;;;;;6286799;22;20007;-68
2021/03/01 06:30:38;;;;;;;9.55;4.35;;;28.10;99.90;;;;;;6295672;22;19996;-67
2021/03/01 06:33:16;;;;;;;13.77;5.60;;;28.10;99.90;;;;;;6293551;22;20020;-67
2021/03/01 06:35:57;;;;;;;11.57;4.90;;;28.20;99.90;;;;;;6293639;22;19999;-67
2021/03/01 06:38:34;;;;;;;9.95;5.18;;;28.10;99.90;;;;;;6283626;22;20004;-67
2021/03/01 06:41:21;;;;;;;16.90;5.57;;;28.10;99.90;;;;;;6285209;22;20065;-68
2021/03/01 06:43:57;;;;;;;16.08;5.65;;;28.10;99.90;;;;;;6286335;22;20011;-68
2021/03/01 06:46:27;;;;;;;11.30;4.80;;;28.10;99.90;;;;;;6285876;22;20000;-68
2021/03/01 06:48:55;;;;;;;10.90;4.93;;;28.00;99.90;;;;;;6286395;22;20531;-67
2021/03/01 06:51:23;;;;;;;10.77;4.72;;;27.90;99.90;;;;;;6286082;22;20435;-67
2021/03/01 06:54:00;;;;;;;10.60;5.53;;;27.80;99.90;;;;;;6284060;22;19996;-68
2021/03/01 06:56:39;;;;;;;13.27;5.90;;;27.80;99.90;;;;;;6286762;22;20376;-69
2021/03/01 06:59:20;;;;;;;9.40;4.53;;;27.80;99.90;;;;;;6283348;22;19999;-69
2021/03/01 07:01:51;;;;;;;9.82;4.90;;;27.70;99.90;;;;;;6283841;22;20003;-68
2021/03/01 07:04:29;;;;;;;13.98;5.95;;;27.60;99.90;;;;;;6284314;22;20000;-68
2021/03/01 07:06:58;;;;;;;13.85;5.22;;;27.60;99.90;;;;;;6284466;22;20000;-67
2021/03/01 07:09:27;;;;;;;38.60;16.98;;;27.50;99.90;;;;;;6284526;22;20000;-67
2021/03/01 07:11:56;;;;;;;15.30;6.38;;;27.40;99.90;;;;;;6277105;22;20011;-67
2021/03/01 07:14:28;;;;;;;17.20;7.40;;;27.30;99.90;;;;;;6277789;22;20000;-68
2021/03/01 07:16:57;;;;;;;12.93;5.97;;;27.30;99.90;;;;;;6277039;22;19999;-68
2021/03/01 07:19:27;;;;;;;13.52;5.60;;;27.20;99.90;;;;;;6276062;22;20003;-68
2021/03/01 07:21:57;;;;;;;16.08;6.18;;;27.10;99.90;;;;;;6274598;22;20437;-67
2021/03/01 07:24:27;;;;;;;14.27;6.65;;;27.10;99.90;;;;;;6274997;22;20011;-68
2021/03/01 07:26:57;;;;;;;17.67;8.63;;;27.10;99.90;;;;;;6278899;22;20000;-68
2021/03/01 07:29:30;;;;;;;14.05;6.25;;;27.00;99.90;;;;;;6280700;22;20003;-68
2021/03/01 07:32:07;;;;;;;18.52;7.05;;;27.00;99.90;;;;;;6279708;22;20015;-68
2021/03/01 07:34:35;;;;;;;16.70;6.45;;;27.00;99.90;;;;;;6278981;22;20000;-68
2021/03/01 07:37:04;;;;;;;13.00;6.60;;;27.00;99.90;;;;;;6276256;22;20035;-68
2021/03/01 07:39:33;;;;;;;14.15;6.97;;;27.00;99.90;;;;;;6275470;22;20008;-68
2021/03/01 07:42:00;;;;;;;9.77;6.30;;;27.10;99.90;;;;;;6275789;22;20000;-68
2021/03/01 07:44:30;;;;;;;13.57;7.47;;;27.10;99.90;;;;;;6278260;22;20315;-68
2021/03/01 07:46:58;;;;;;;14.95;7.30;;;27.10;99.90;;;;;;6277742;22;20004;-68
2021/03/01 07:49:45;;;;;;;13.68;7.47;;;27.10;99.90;;;;;;6280769;22;20004;-68
2021/03/01 07:52:22;;;;;;;18.90;7.45;;;27.00;99.90;;;;;;6281911;22;20006;-68
2021/03/01 07:57:18;;;;;;;14.32;7.90;;;26.90;99.90;;;;;;6334877;22;20076;-83
2021/03/01 07:59:46;;;;;;;15.82;7.72;;;26.90;99.90;;;;;;6335248;22;20473;-83
2021/03/01 08:02:22;;;;;;;14.48;8.05;;;26.80;99.90;;;;;;6331412;22;20065;-83
2021/03/01 08:04:51;;;;;;;15.38;7.72;;;26.80;99.90;;;;;;6332914;22;20021;-82
2021/03/01 08:07:37;;;;;;;15.13;8.20;;;26.70;99.90;;;;;;6336377;22;20006;-83
2021/03/01 08:10:06;;;;;;;16.70;8.40;;;26.70;99.90;;;;;;6338613;22;20094;-83
2021/03/01 08:12:36;;;;;;;16.38;9.10;;;26.60;99.90;;;;;;6328381;22;20102;-83
2021/03/01 08:15:10;;;;;;;20.23;9.27;;;26.60;99.90;;;;;;6307397;22;20326;-83
2021/03/01 08:17:39;;;;;;;20.08;8.35;;;26.60;99.90;;;;;;6331152;22;20007;-83
2021/03/01 08:20:15;;;;;;;19.58;8.82;;;26.50;99.90;;;;;;6307094;22;20292;-83
2021/03/01 08:23:12;;;;;;;16.67;9.13;;;26.40;99.90;;;;;;6330655;22;20056;-83
2021/03/01 08:25:49;;;;;;;13.63;8.38;;;26.40;99.90;;;;;;6305224;22;20307;-84
2021/03/01 08:28:22;;;;;;;15.75;10.35;;;26.40;99.90;;;;;;6306924;22;19999;-82
2021/03/01 08:30:52;;;;;;;13.83;9.37;;;26.30;99.90;;;;;;6307343;22;20007;-83
2021/03/01 08:33:20;;;;;;;16.80;9.38;;;26.30;99.90;;;;;;6286371;22;20233;-83
2021/03/01 08:35:51;;;;;;;19.33;10.98;;;26.20;99.90;;;;;;6276405;22;20056;-83
2021/03/01 08:38:38;;;;;;;16.60;9.40;;;26.20;99.90;;;;;;6276257;22;20323;-83
2021/03/01 08:41:05;;;;;;;18.85;10.18;;;26.20;99.90;;;;;;6300240;22;20007;-83
2021/03/01 08:43:37;;;;;;;16.00;10.30;;;26.20;99.90;;;;;;6274571;22;20030;-83
2021/03/01 08:46:05;;;;;;;19.85;10.77;;;26.10;99.90;;;;;;6274109;22;19999;-83
2021/03/01 08:48:44;;;;;;;18.80;11.13;;;26.10;99.90;;;;;;6276065;22;20078;-83
2021/03/01 08:51:12;;;;;;;19.42;10.18;;;26.10;99.90;;;;;;6275602;22;20010;-83
2021/03/01 08:53:40;;;;;;;18.75;11.23;;;26.00;99.90;;;;;;6273471;22;20004;-84
2021/03/01 08:56:26;;;;;;;18.98;10.82;;;26.00;99.90;;;;;;6276027;22;19996;-83
2021/03/01 08:58:54;;;;;;;19.85;11.02;;;25.90;99.90;;;;;;6275876;22;20004;-83
2021/03/01 09:01:22;;;;;;;17.13;10.98;;;25.90;99.90;;;;;;6275809;22;20035;-84
2021/03/01 09:03:50;;;;;;;21.42;11.45;;;25.90;99.90;;;;;;6332954;22;20460;-67
2021/03/01 09:06:27;;;;;;;16.58;10.82;;;25.90;99.90;;;;;;6338735;22;20044;-69
2021/03/01 09:08:56;;;;;;;19.02;12.35;;;25.90;99.90;;;;;;6338710;22;20006;-70
2021/03/01 09:11:30;;;;;;;21.02;12.00;;;25.90;99.90;;;;;;6337536;22;20373;-70
2021/03/01 09:14:04;;;;;;;18.13;11.38;;;25.90;99.90;;;;;;6336488;22;20369;-67
2021/03/01 09:16:34;;;;;;;19.00;11.68;;;25.80;99.90;;;;;;6338957;22;20313;-67
2021/03/01 09:19:02;;;;;;;23.42;12.13;;;25.80;99.90;;;;;;6338112;22;20375;-69
2021/03/01 09:21:31;;;;;;;18.15;11.52;;;25.70;99.90;;;;;;6339213;22;20011;-70
2021/03/01 09:23:59;;;;;;;23.58;13.00;;;25.70;99.90;;;;;;6339153;22;19995;-70
2021/03/01 09:26:35;;;;;;;22.38;12.18;;;25.60;99.90;;;;;;6338364;22;20002;-70
2021/03/01 09:29:24;;;;;;;19.00;13.57;;;25.50;99.90;;;;;;6338967;22;20393;-70
2021/03/01 09:31:54;;;;;;;21.10;12.43;;;25.50;99.90;;;;;;6338988;22;20374;-69
2021/03/01 09:34:27;;;;;;;22.08;13.38;;;25.50;99.90;;;;;;6338269;22;20039;-70
2021/03/01 09:36:54;;;;;;;23.83;13.20;;;25.50;99.90;;;;;;6338737;22;20014;-69
2021/03/01 09:39:26;;;;;;;17.15;12.65;;;25.40;99.90;;;;;;6339039;22;20091;-69
2021/03/01 09:41:55;;;;;;;22.10;13.38;;;25.50;99.90;;;;;;6339372;22;20003;-69
2021/03/01 09:44:28;;;;;;;17.55;13.68;;;25.50;99.90;;;;;;6337781;22;20078;-69
2021/03/01 09:46:57;;;;;;;19.33;13.37;;;25.30;99.90;;;;;;6338546;22;19999;-69
2021/03/01 09:49:27;;;;;;;19.98;14.38;;;25.30;99.90;;;;;;6336352;22;20073;-69
2021/03/01 09:51:54;;;;;;;19.30;12.98;;;25.30;99.90;;;;;;6338827;22;20002;-69
2021/03/01 09:54:25;;;;;;;19.48;14.02;;;25.30;99.90;;;;;;6335526;22;19999;-69
2021/03/01 09:56:54;;;;;;;21.83;13.57;;;25.30;99.90;;;;;;6307499;22;20002;-69
2021/03/01 09:59:50;;;;;;;27.55;14.93;;;25.30;99.90;;;;;;6307249;22;20007;-69
2021/03/01 10:02:23;;;;;;;23.35;14.90;;;25.20;99.90;;;;;;6299131;22;20055;-69
2021/03/01 10:04:52;;;;;;;21.50;15.30;;;25.20;99.90;;;;;;6307571;22;20020;-69
2021/03/01 10:07:26;;;;;;;20.30;15.35;;;25.20;99.90;;;;;;6307610;22;20003;-69
2021/03/01 10:09:54;;;;;;;;;;;25.10;99.90;;;;;;6307694;22;20310;-69
2021/03/01 10:12:22;;;;;;;19.90;14.50;;;25.10;99.90;;;;;;6306731;22;19899;-69
2021/03/01 10:15:00;;;;;;;23.02;14.73;;;25.10;99.90;;;;;;6307347;22;20002;-69
2021/03/01 10:17:29;;;;;;;22.17;14.95;;;25.00;99.90;;;;;;6308415;22;20063;-69
2021/03/01 10:20:11;;;;;;;19.23;13.65;;;25.00;99.90;;;;;;6307892;22;19999;-67
2021/03/01 10:23:06;;;;;;;19.45;13.95;;;25.00;99.90;;;;;;6307454;22;20090;-68
2021/03/01 10:25:42;;;;;;;19.65;14.38;;;24.90;99.90;;;;;;6307760;22;20007;-68
2021/03/01 10:28:38;;;;;;;20.60;13.40;;;24.90;99.90;;;;;;6306167;22;20375;-68
2021/03/01 10:31:11;;;;;;;19.45;14.05;;;24.90;99.90;;;;;;6308207;22;20341;-69
2021/03/01 10:34:00;;;;;;;18.43;14.70;;;24.90;99.90;;;;;;6307575;22;20346;-69
2021/03/01 10:36:33;;;;;;;20.20;14.77;;;24.80;99.90;;;;;;6308134;22;19999;-69
2021/03/01 10:39:09;;;;;;;21.60;15.40;;;24.80;99.90;;;;;;6307731;22;20417;-69
2021/03/01 10:41:48;;;;;;;21.38;14.38;;;24.80;99.90;;;;;;6307999;22;20003;-69
2021/03/01 10:44:16;;;;;;;22.30;16.23;;;24.70;99.90;;;;;;6305662;22;20057;-69
2021/03/01 10:46:49;;;;;;;19.75;13.95;;;24.70;99.90;;;;;;6304493;22;20334;-69
2021/03/01 10:49:36;;;;;;;24.50;15.00;;;24.60;99.90;;;;;;6306764;22;19999;-69
2021/03/01 10:52:07;;;;;;;19.52;15.02;;;24.60;99.90;;;;;;6307041;22;20003;-69
2021/03/01 10:54:35;;;;;;;22.23;15.52;;;24.60;99.90;;;;;;6307089;22;20074;-68
2021/03/01 10:57:03;;;;;;;19.67;14.70;;;24.50;99.90;;;;;;6308579;22;20011;-69
2021/03/01 10:59:30;;;;;;;26.55;14.90;;;24.50;99.90;;;;;;6308390;22;20086;-69
2021/03/01 11:01:58;;;;;;;20.55;14.40;;;24.50;99.90;;;;;;6307989;22;20341;-69
2021/03/01 11:04:25;;;;;;;22.45;15.77;;;24.50;99.90;;;;;;6307136;22;20031;-69
2021/03/01 11:06:53;;;;;;;33.13;18.00;;;24.40;99.90;;;;;;6306917;22;20064;-69
2021/03/01 11:09:21;;;;;;;36.13;18.10;;;24.40;99.90;;;;;;6306532;22;19996;-69
2021/03/01 11:11:50;;;;;;;24.40;16.08;;;24.40;99.90;;;;;;6308159;22;20007;-68
2021/03/01 11:14:19;;;;;;;24.75;16.90;;;24.40;99.90;;;;;;6308138;22;19996;-68
2021/03/01 11:16:46;;;;;;;30.17;18.75;;;24.40;99.90;;;;;;6308435;22;20006;-68
2021/03/01 11:19:15;;;;;;;28.67;18.77;;;24.40;99.90;;;;;;6309156;22;20328;-68
2021/03/01 11:21:43;;;;;;;32.88;19.42;;;24.40;99.90;;;;;;6308978;22;20046;-68
2021/03/01 11:24:13;;;;;;;26.05;17.45;;;24.40;99.90;;;;;;6309214;22;20046;-68
2021/03/01 11:26:40;;;;;;;26.70;16.63;;;24.50;99.90;;;;;;6309668;22;20086;-69
2021/03/01 11:29:08;;;;;;;17.38;11.43;;;24.50;99.90;;;;;;6310657;22;20302;-69
2021/03/01 11:31:35;;;;;;;22.98;8.40;;;24.50;99.90;;;;;;6312512;22;20091;-69
2021/03/01 11:34:06;;;;;;;27.17;6.88;;;24.40;99.90;;;;;;6310690;22;20007;-69
2021/03/01 11:36:34;;;;;;;24.02;6.45;;;24.00;99.90;;;;;;6337567;22;20003;-68
2021/03/01 11:39:02;;;;;;;30.17;7.95;;;23.80;99.90;;;;;;6313364;22;20033;-68
2021/03/01 11:41:29;;;;;;;27.25;7.32;;;23.60;99.90;;;;;;6311167;22;20356;-68
2021/03/01 11:43:57;;;;;;;33.63;7.72;;;23.50;99.90;;;;;;6309063;22;20003;-68
2021/03/01 11:46:25;;;;;;;35.78;8.82;;;23.40;99.90;;;;;;6311494;22;20029;-68
2021/03/01 11:48:52;;;;;;;32.67;8.45;;;23.30;99.90;;;;;;6335579;22;20008;-67
2021/03/01 11:51:19;;;;;;;32.60;7.28;;;23.20;99.90;;;;;;6310107;22;20003;-68
2021/03/01 11:53:47;;;;;;;27.98;7.25;;;23.10;99.90;;;;;;6309934;22;20007;-68
2021/03/01 11:56:15;;;;;;;36.03;7.88;;;23.10;99.90;;;;;;6311899;22;19995;-68
2021/03/01 11:58:43;;;;;;;32.78;7.75;;;23.00;99.90;;;;;;6310482;22;20417;-68
2021/03/01 12:01:11;;;;;;;28.77;8.57;;;23.00;99.90;;;;;;6309972;22;20005;-68
2021/03/01 12:03:39;;;;;;;30.00;7.47;;;22.90;99.90;;;;;;6309055;22;20008;-67
2021/03/01 12:06:08;;;;;;;31.95;7.85;;;22.80;99.90;;;;;;6310856;22;20035;-68
2021/03/01 12:08:35;;;;;;;26.67;7.68;;;22.80;99.90;;;;;;6309809;22;20003;-68
2021/03/01 12:11:03;;;;;;;27.77;8.20;;;22.80;99.90;;;;;;6309238;22;20007;-68
2021/03/01 12:13:30;;;;;;;32.28;8.90;;;22.70;99.90;;;;;;6333595;22;20033;-69
2021/03/01 12:15:58;;;;;;;29.98;9.85;;;22.60;99.90;;;;;;6309467;22;20011;-68
2021/03/01 12:18:25;;;;;;;28.63;8.65;;;22.70;99.90;;;;;;6309302;22;20006;-68
2021/03/01 12:20:52;;;;;;;27.85;7.70;;;22.60;99.90;;;;;;6334005;22;20372;-69
2021/03/01 12:23:20;;;;;;;31.63;8.98;;;22.60;99.90;;;;;;6308572;22;20031;-69
2021/03/01 12:25:47;;;;;;;26.48;7.90;;;22.60;99.90;;;;;;6308622;22;20011;-69
2021/03/01 12:28:14;;;;;;;38.30;9.18;;;22.60;99.90;;;;;;6307071;22;20429;-69
2021/03/01 12:30:42;;;;;;;28.65;8.48;;;22.60;99.90;;;;;;6308341;22;20472;-68
2021/03/01 12:33:09;;;;;;;30.92;9.75;;;22.60;99.90;;;;;;6308553;22;20006;-68
2021/03/01 12:35:37;;;;;;;29.75;10.57;;;22.60;99.90;;;;;;6308759;22;20009;-69
2021/03/01 12:38:05;;;;;;;35.58;10.05;;;22.50;99.90;;;;;;6309066;22;20007;-68
2021/03/01 12:40:32;;;;;;;36.17;9.70;;;22.50;99.90;;;;;;6306603;22;20008;-69
2021/03/01 12:43:00;;;;;;;31.38;9.40;;;22.50;99.90;;;;;;6309146;22;20003;-68
2021/03/01 12:45:28;;;;;;;30.85;9.80;;;22.40;99.90;;;;;;6308519;22;20026;-68
2021/03/01 12:47:55;;;;;;;32.08;10.20;;;22.40;99.90;;;;;;6332682;22;20336;-68
2021/03/01 12:50:23;;;;;;;31.52;11.13;;;22.40;99.90;;;;;;6308002;22;20004;-68
2021/03/01 12:52:50;;;;;;;55.78;12.88;;;22.30;99.90;;;;;;6308813;22;20006;-68
2021/03/01 12:55:18;;;;;;;34.22;10.30;;;22.30;99.90;;;;;;6307195;22;19995;-67
2021/03/01 12:57:45;;;;;;;33.92;12.43;;;22.30;99.90;;;;;;6308533;22;20007;-69
2021/03/01 13:00:13;;;;;;;33.97;10.10;;;22.20;99.90;;;;;;6309737;22;20484;-67
2021/03/01 13:02:41;;;;;;;37.22;11.07;;;22.20;99.90;;;;;;6308762;22;20043;-68
2021/03/01 13:05:09;;;;;;;40.53;12.35;;;22.20;99.90;;;;;;6308320;22;19999;-68
2021/03/01 13:07:40;;;;;;;29.00;12.00;;;22.20;99.90;;;;;;6308647;22;20082;-68
2021/03/01 13:10:08;;;;;;;32.70;10.20;;;22.20;99.90;;;;;;6309068;22;19995;-68
2021/03/01 13:12:36;;;;;;;40.28;11.95;;;22.20;99.90;;;;;;6308493;22;19996;-68
2021/03/01 13:15:07;;;;;;;33.90;11.18;;;22.20;99.90;;;;;;6308488;22;20325;-68
2021/03/01 13:17:34;;;;;;;31.55;11.65;;;22.20;99.90;;;;;;6308843;22;20444;-68
2021/03/01 13:20:03;;;;;;;37.30;13.32;;;22.20;99.90;;;;;;6306293;22;20011;-67
2021/03/01 13:22:31;;;;;;;39.38;14.00;;;22.20;99.90;;;;;;6308129;22;20027;-68
2021/03/01 13:24:59;;;;;;;27.05;11.27;;;22.20;99.90;;;;;;6307534;22;20029;-68
2021/03/01 13:27:26;;;;;;;34.90;11.23;;;22.20;99.90;;;;;;6307935;22;20013;-68
2021/03/01 13:29:53;;;;;;;42.00;12.70;;;22.10;99.90;;;;;;6307928;22;20417;-68
2021/03/01 13:32:21;;;;;;;37.63;12.90;;;22.10;99.90;;;;;;6308580;22;20413;-68
2021/03/01 13:34:48;;;;;;;38.72;13.00;;;22.10;99.90;;;;;;6308667;22;20329;-68
2021/03/01 13:37:15;;;;;;;31.95;11.13;;;22.10;99.90;;;;;;6307909;22;20004;-68
2021/03/01 13:39:42;;;;;;;39.63;13.88;;;22.00;99.90;;;;;;6306410;22;20052;-68
2021/03/01 13:42:10;;;;;;;29.55;12.25;;;22.10;99.90;;;;;;6308980;22;20007;-68
2021/03/01 13:44:37;;;;;;;35.88;12.98;;;22.00;99.90;;;;;;6306800;22;20065;-68
2021/03/01 13:47:05;;;;;;;39.88;14.00;;;22.00;99.90;;;;;;6307063;22;20078;-68
2021/03/01 13:49:32;;;;;;;33.75;11.80;;;22.00;99.90;;;;;;6306555;22;19996;-68
2021/03/01 13:51:59;;;;;;;30.60;12.50;;;22.00;99.90;;;;;;6307792;22;19996;-67
2021/03/01 13:54:27;;;;;;;31.17;12.07;;;22.00;99.90;;;;;;6319567;22;20011;-68
2021/03/01 13:56:54;;;;;;;32.78;11.35;;;22.00;99.90;;;;;;6307324;22;20367;-68
2021/03/01 13:59:22;;;;;;;28.50;12.00;;;21.90;99.90;;;;;;6307102;22;19995;-67
2021/03/01 14:01:49;;;;;;;31.92;11.52;;;21.90;99.90;;;;;;6306931;22;20007;-68
2021/03/01 14:04:16;;;;;;;35.72;13.23;;;21.90;99.90;;;;;;6301903;22;20003;-69
2021/03/01 14:06:44;;;;;;;38.08;13.05;;;21.90;99.90;;;;;;6306424;22;20027;-68
2021/03/01 14:09:11;;;;;;;32.90;11.85;;;21.90;99.90;;;;;;6304391;22;20397;-69
2021/03/01 14:11:39;;;;;;;29.67;11.75;;;21.90;99.90;;;;;;6305245;22;20004;-68
2021/03/01 14:14:07;;;;;;;37.95;11.18;;;21.90;99.90;;;;;;6304800;22;20033;-68
2021/03/01 14:16:34;;;;;;;33.17;11.63;;;21.90;99.90;;;;;;6307093;22;19999;-68
2021/03/01 14:19:02;;;;;;;30.52;10.93;;;21.90;99.90;;;;;;6306758;22;20002;-68
2021/03/01 14:21:30;;;;;;;26.05;9.88;;;21.80;99.90;;;;;;6305809;22;20093;-69
2021/03/01 14:23:57;;;;;;;32.78;11.38;;;21.90;99.90;;;;;;6304158;22;20018;-69
2021/03/01 14:26:25;;;;;;;29.55;9.00;;;21.90;99.90;;;;;;6305736;22;19999;-68
2021/03/01 14:28:52;;;;;;;26.95;9.07;;;21.80;99.90;;;;;;6306301;22;20009;-69
2021/03/01 14:31:19;;;;;;;27.58;8.82;;;21.80;99.90;;;;;;6306718;22;20082;-69
2021/03/01 14:33:47;;;;;;;27.85;9.60;;;21.80;99.90;;;;;;6306283;22;20310;-67
2021/03/01 14:36:15;;;;;;;23.33;7.95;;;21.80;99.90;;;;;;6331406;22;20003;-69
2021/03/01 14:38:43;;;;;;;24.52;8.23;;;21.80;99.90;;;;;;6306176;22;20009;-68